Time;durP1;ratioP1;P1;durP2;ratioP2;P2;SDS_P1;SDS_P2;PMS_P1;PMS_P2;Temp;Humidity;BMP_temperature;BMP_pressure;BME280_temperature;BME280_humidity;BME280_pressure;Samples;Min_cycle;Max_cycle;Signal;HPM_P1;HPM_P2
2022/03/02 00:00:32;;;;;;;33.72;17.48;;;;;;;4.43;69.46;102439.88;5048610;28;20033;-73
2022/03/02 00:02:58;;;;;;;37.58;18.50;;;;;;;4.41;70.30;102444.38;5053975;28;20035;-73
2022/03/02 00:05:24;;;;;;;34.47;17.50;;;;;;;4.38;70.58;102444.44;5075204;28;20028;-73
2022/03/02 00:07:50;;;;;;;31.10;18.02;;;;;;;4.31;71.98;102443.69;5076408;28;20101;-73
2022/03/02 00:10:15;;;;;;;29.08;17.33;;;;;;;4.28;71.81;102443.75;5075356;28;20115;-73
2022/03/02 00:12:40;;;;;;;30.52;16.23;;;;;;;4.24;71.59;102443.88;5059166;28;20477;-73
2022/03/02 00:15:06;;;;;;;31.75;17.77;;;;;;;4.20;70.79;102443.03;5055895;28;20056;-74
2022/03/02 00:17:32;;;;;;;33.95;19.33;;;;;;;4.13;71.64;102442.31;5056369;28;20040;-73
2022/03/02 00:19:58;;;;;;;34.00;18.15;;;;;;;4.10;70.90;102442.38;5046437;28;20029;-73
2022/03/02 00:22:23;;;;;;;32.05;17.52;;;;;;;4.08;69.97;102444.16;5041167;28;20516;-73
2022/03/02 00:24:51;;;;;;;31.33;17.08;;;;;;;4.01;70.50;102446.09;5044536;28;20037;-73
2022/03/02 00:27:23;;;;;;;31.10;17.05;;;;;;;3.98;70.21;102453.25;5049452;28;20564;-73
2022/03/02 00:29:48;;;;;;;36.10;18.30;;;;;;;3.93;70.88;102456.00;5049213;28;20573;-73
2022/03/02 00:32:13;;;;;;;33.05;19.30;;;;;;;3.88;71.75;102446.34;5035037;28;20052;-73
2022/03/02 00:34:38;;;;;;;30.25;17.48;;;;;;;3.80;71.98;102449.16;5072232;28;20052;-73
2022/03/02 00:37:04;;;;;;;31.15;18.35;;;;;;;3.76;72.43;102444.81;5045280;28;20361;-73
2022/03/02 00:39:29;;;;;;;31.67;16.58;;;;;;;3.73;72.11;102445.72;5038415;28;20026;-73
2022/03/02 00:41:54;;;;;;;37.15;20.83;;;;;;;3.72;71.21;102446.66;5052591;28;20104;-73
2022/03/02 00:44:20;;;;;;;31.55;18.27;;;;;;;3.70;71.70;102445.78;5053872;28;20021;-73
2022/03/02 00:46:45;;;;;;;32.85;18.40;;;;;;;3.70;70.61;102443.13;5044609;28;20052;-73
2022/03/02 00:49:11;;;;;;;32.00;18.27;;;;;;;3.67;71.26;102448.50;5036723;28;20037;-73
2022/03/02 00:51:36;;;;;;;35.47;20.00;;;;;;;3.66;70.50;102441.44;5038403;28;20476;-73
2022/03/02 00:54:02;;;;;;;33.67;18.67;;;;;;;3.63;70.88;102442.38;5040571;28;20083;-73
2022/03/02 00:56:27;;;;;;;30.40;18.17;;;;;;;3.61;71.59;102444.19;5037332;28;20044;-73
2022/03/02 00:58:53;;;;;;;39.08;18.50;;;;;;;3.60;70.23;102438.91;5042035;28;20191;-73
2022/03/02 01:01:18;;;;;;;32.22;18.60;;;;;;;3.57;71.29;102436.28;5063173;28;20163;-72
2022/03/02 01:03:43;;;;;;;33.97;18.67;;;;;;;3.54;70.09;102433.69;5062196;28;20437;-72
2022/03/02 01:06:09;;;;;;;32.80;18.23;;;;;;;3.50;71.13;102430.25;5034556;28;20147;-72
2022/03/02 01:08:34;;;;;;;35.33;17.23;;;;;;;3.49;71.20;102423.16;5038592;28;20389;-72
2022/03/02 01:11:00;;;;;;;36.25;18.85;;;;;;;3.47;70.76;102423.19;5037848;28;20505;-72
2022/03/02 01:13:26;;;;;;;34.17;19.13;;;;;;;3.43;70.61;102413.50;5050793;28;20032;-72
2022/03/02 01:15:51;;;;;;;34.92;19.05;;;;;;;3.42;71.18;102411.75;5053557;28;20749;-72
2022/03/02 01:18:17;;;;;;;35.65;19.90;;;;;;;3.40;71.46;102412.69;5052977;28;20035;-72
2022/03/02 01:20:42;;;;;;;34.83;17.13;;;;;;;3.37;71.76;102410.97;5052458;28;20025;-72
2022/03/02 01:23:07;;;;;;;32.67;17.23;;;;;;;3.36;71.26;102414.53;5054938;28;20036;-73
2022/03/02 01:25:33;;;;;;;31.20;18.75;;;;;;;3.31;70.10;102403.97;5052032;28;20021;-73
2022/03/02 01:27:58;;;;;;;31.13;17.88;;;;;;;3.28;71.16;102397.81;5052467;28;20029;-73
2022/03/02 01:30:23;;;;;;;32.28;18.95;;;;;;;3.26;71.07;102407.63;5052977;28;20074;-73
2022/03/02 01:32:49;;;;;;;34.85;19.15;;;;;;;3.26;70.68;102412.94;5040876;28;20035;-73
2022/03/02 01:35:14;;;;;;;31.98;16.83;;;;;;;3.24;70.20;102398.81;5044407;28;20030;-73
2022/03/02 01:37:39;;;;;;;30.05;16.80;;;;;;;3.23;70.63;102391.72;5048262;28;20497;-73
2022/03/02 01:40:09;;;;;;;30.92;16.95;;;;;;;3.18;71.50;102396.22;5044603;28;20024;-73
2022/03/02 01:42:35;;;;;;;31.88;16.92;;;;;;;3.17;70.94;102399.81;5043001;28;20100;-73
2022/03/02 01:45:02;;;;;;;35.88;17.63;;;;;;;3.14;71.69;102390.13;5036557;28;20552;-72
2022/03/02 01:47:28;;;;;;;30.38;16.27;;;;;;;3.15;70.29;102400.72;5042210;28;20025;-73
2022/03/02 01:49:53;;;;;;;32.72;17.35;;;;;;;3.17;71.54;102391.84;5034772;28;20056;-73
2022/03/02 01:52:18;;;;;;;34.10;18.75;;;;;;;3.18;70.81;102388.25;5045632;28;20112;-73
2022/03/02 01:54:45;;;;;;;31.77;17.92;;;;;;;3.16;70.05;102388.28;5049797;28;20154;-73
2022/03/02 01:57:10;;;;;;;30.80;17.77;;;;;;;3.14;70.66;102384.81;5050903;28;20448;-73
2022/03/02 01:59:36;;;;;;;33.88;19.10;;;;;;;3.15;70.79;102392.75;5038931;28;20025;-73
2022/03/02 02:02:02;;;;;;;32.67;17.75;;;;;;;3.16;69.88;102388.28;5038976;28;20056;-73
2022/03/02 02:04:27;;;;;;;33.63;18.55;;;;;;;3.17;70.84;102384.75;5054055;28;20063;-73
2022/03/02 02:06:52;;;;;;;31.70;16.30;;;;;;;3.20;69.35;102384.69;5050153;28;20025;-73
2022/03/02 02:09:17;;;;;;;33.38;17.45;;;;;;;3.21;70.98;102380.28;5043346;28;20474;-73
2022/03/02 02:11:43;;;;;;;33.63;17.63;;;;;;;3.20;71.29;102381.16;5037243;28;20393;-73
2022/03/02 02:14:08;;;;;;;31.83;17.42;;;;;;;3.15;71.48;102376.81;5052459;28;20041;-73
2022/03/02 02:16:33;;;;;;;30.45;17.05;;;;;;;3.12;70.05;102362.72;5039904;28;20556;-73
2022/03/02 02:18:58;;;;;;;34.30;18.98;;;;;;;3.12;70.30;102368.03;5034164;28;20044;-72
2022/03/02 02:21:24;;;;;;;33.15;19.58;;;;;;;3.10;71.19;102365.38;5041770;28;20116;-72
2022/03/02 02:23:50;;;;;;;29.90;17.10;;;;;;;3.10;71.32;102367.16;5049421;28;20039;-72
2022/03/02 02:26:15;;;;;;;29.88;17.17;;;;;;;3.12;71.25;102371.53;5045693;28;20028;-72
2022/03/02 02:28:41;;;;;;;30.63;16.75;;;;;;;3.11;71.53;102366.25;5051839;28;20110;-73
2022/03/02 02:31:07;;;;;;;31.42;17.25;;;;;;;3.09;71.17;102362.75;5049935;28;20128;-72
2022/03/02 02:33:32;;;;;;;32.33;17.00;;;;;;;3.11;70.85;102359.16;5058750;28;20461;-73
2022/03/02 02:35:58;;;;;;;33.20;18.48;;;;;;;3.09;70.62;102362.75;5058031;28;20032;-73
2022/03/02 02:38:24;;;;;;;31.08;16.33;;;;;;;3.08;71.48;102359.22;5044746;28;20025;-73
2022/03/02 02:40:51;;;;;;;32.00;15.68;;;;;;;3.09;71.28;102360.97;5047014;28;20036;-73
2022/03/02 02:43:18;;;;;;;32.50;17.50;;;;;;;3.09;71.62;102357.44;5071962;28;20186;-73
2022/03/02 02:45:43;;;;;;;32.33;17.20;;;;;;;3.13;70.21;102356.47;5047487;28;20226;-72
2022/03/02 02:48:09;;;;;;;31.40;15.93;;;;;;;3.13;70.28;102346.75;5069512;28;20063;-73
2022/03/02 02:50:34;;;;;;;30.52;17.17;;;;;;;3.12;70.45;102347.63;5037645;28;20029;-72
2022/03/02 02:53:03;;;;;;;31.60;16.95;;;;;;;3.15;70.44;102344.06;5045266;28;20048;-72
2022/03/02 02:55:30;;;;;;;31.17;15.43;;;;;;;3.17;69.12;102347.53;5058087;28;20039;-72
2022/03/02 02:57:57;;;;;;;32.95;17.58;;;;;;;3.17;70.33;102354.66;5051381;28;20279;-72
2022/03/02 03:00:30;;;;;;;31.27;17.13;;;;;;;3.19;70.41;102352.84;5044062;28;20174;-72
2022/03/02 03:02:56;;;;;;;30.70;16.75;;;;;;;3.17;70.43;102354.66;5055334;28;20029;-72
2022/03/02 03:05:25;;;;;;;31.52;17.27;;;;;;;3.15;68.61;102352.03;5036169;28;20420;-72
2022/03/02 03:07:53;;;;;;;32.90;16.88;;;;;;;3.17;70.22;102352.00;5051117;28;20016;-72
2022/03/02 03:10:19;;;;;;;29.70;16.50;;;;;;;3.17;69.46;102359.97;5045499;28;20049;-73
2022/03/02 03:12:46;;;;;;;31.73;17.02;;;;;;;3.15;69.18;102342.25;5047365;28;20040;-72
2022/03/02 03:15:13;;;;;;;30.80;17.10;;;;;;;3.13;69.05;102340.53;5049477;28;20121;-72
2022/03/02 03:17:39;;;;;;;33.15;17.38;;;;;;;3.13;68.79;102351.16;5055555;28;20093;-72
2022/03/02 03:20:07;;;;;;;30.20;16.17;;;;;;;3.13;69.53;102345.84;5048493;28;20025;-73
2022/03/02 03:22:33;;;;;;;30.55;16.45;;;;;;;3.15;67.84;102342.25;5036611;28;20072;-73
2022/03/02 03:24:58;;;;;;;29.35;14.77;;;;;;;3.15;68.21;102342.25;5043923;28;20025;-73
2022/03/02 03:27:23;;;;;;;31.77;17.05;;;;;;;3.19;67.99;102339.53;5048920;28;20033;-73
2022/03/02 03:29:49;;;;;;;30.40;15.00;;;;;;;3.22;65.92;102334.19;5044411;28;20056;-73
2022/03/02 03:32:14;;;;;;;33.08;15.65;;;;;;;3.27;66.33;102334.97;5050882;28;20444;-73
2022/03/02 03:34:39;;;;;;;28.33;14.50;;;;;;;3.28;67.12;102336.72;5045962;28;20500;-73
2022/03/02 03:37:05;;;;;;;30.65;15.20;;;;;;;3.31;66.32;102347.31;5048305;28;20068;-73
2022/03/02 03:39:30;;;;;;;29.50;13.52;;;;;;;3.36;64.96;102336.59;5044680;28;20041;-72
2022/03/02 03:41:55;;;;;;;28.45;14.27;;;;;;;3.38;64.28;102335.63;5035954;28;20104;-72
2022/03/02 03:44:22;;;;;;;30.00;13.98;;;;;;;3.40;64.58;102340.94;5050180;28;20481;-72
2022/03/02 03:46:47;;;;;;;29.00;14.93;;;;;;;3.39;63.72;102336.53;5043612;28;20040;-73
2022/03/02 03:49:12;;;;;;;28.27;14.32;;;;;;;3.42;62.55;102336.47;5054268;28;20342;-73
2022/03/02 03:51:38;;;;;;;26.35;15.25;;;;;;;3.42;64.17;102332.00;5048381;28;20071;-74
2022/03/02 03:54:03;;;;;;;29.00;15.18;;;;;;;3.40;62.91;102336.50;5040827;28;20029;-72
2022/03/02 03:56:30;;;;;;;29.67;14.10;;;;;;;3.38;62.55;102325.00;5044505;28;20040;-72
2022/03/02 03:58:55;;;;;;;30.33;14.75;;;;;;;3.38;64.66;102335.63;5052573;28;20114;-72
2022/03/02 04:01:21;;;;;;;28.88;14.98;;;;;;;3.33;65.46;102319.78;5046061;28;20029;-72
2022/03/02 04:03:47;;;;;;;27.67;14.18;;;;;;;3.29;64.46;102320.78;5051710;28;20528;-72
2022/03/02 04:06:12;;;;;;;28.58;14.43;;;;;;;3.30;62.79;102329.59;5037461;28;20033;-72
2022/03/02 04:08:38;;;;;;;35.13;14.13;;;;;;;3.31;61.94;102323.41;5051101;28;20033;-72
2022/03/02 04:11:03;;;;;;;29.88;15.55;;;;;;;3.33;62.99;102325.09;5036954;28;20126;-72
2022/03/02 04:13:29;;;;;;;28.42;14.40;;;;;;;3.33;62.94;102324.22;5051148;28;20017;-72
2022/03/02 04:15:54;;;;;;;27.35;13.65;;;;;;;3.36;61.60;102321.50;5046096;28;20021;-72
2022/03/02 04:18:20;;;;;;;28.63;13.35;;;;;;;3.36;62.56;102317.97;5036380;28;20060;-72
2022/03/02 04:20:45;;;;;;;26.95;14.45;;;;;;;3.31;64.14;102312.75;5033643;28;20124;-72
2022/03/02 04:23:11;;;;;;;28.25;14.23;;;;;;;3.29;63.11;102310.13;5044235;28;20029;-72
2022/03/02 04:25:36;;;;;;;28.33;14.48;;;;;;;3.24;64.68;102303.16;5050269;28;20598;-72
2022/03/02 04:28:03;;;;;;;30.38;14.80;;;;;;;3.19;64.98;102300.56;5045281;28;20025;-72
2022/03/02 04:30:30;;;;;;;28.77;13.80;;;;;;;3.14;64.84;102300.66;5037535;28;20029;-72
2022/03/02 04:32:55;;;;;;;27.77;13.63;;;;;;;3.11;65.46;102300.72;5045707;28;20030;-72
2022/03/02 04:35:21;;;;;;;31.25;15.40;;;;;;;3.07;65.68;102301.66;5043894;28;20025;-72
2022/03/02 04:37:46;;;;;;;26.45;13.52;;;;;;;3.04;65.86;102292.91;5044453;28;20166;-72
2022/03/02 04:40:12;;;;;;;28.90;13.85;;;;;;;3.02;65.13;102289.41;5054726;28;20035;-73
2022/03/02 04:42:38;;;;;;;29.98;14.23;;;;;;;3.01;64.05;102291.16;5049835;28;20047;-72
2022/03/02 04:45:04;;;;;;;29.55;14.32;;;;;;;2.97;65.54;102293.00;5053010;28;20024;-72
2022/03/02 04:47:30;;;;;;;26.85;12.40;;;;;;;2.94;65.57;102293.06;5053925;28;20147;-72
2022/03/02 04:49:55;;;;;;;27.50;12.55;;;;;;;2.97;63.38;102289.47;5058904;28;20029;-72
2022/03/02 04:52:21;;;;;;;28.92;14.25;;;;;;;2.91;64.77;102284.28;5038596;28;20131;-72
2022/03/02 04:57:31;;;;;;;25.30;11.55;;;;;;;2.98;61.74;102283.25;5045040;28;20043;-72
2022/03/02 04:59:56;;;;;;;25.77;13.02;;;;;;;2.99;62.19;102279.72;5047597;28;20027;-72
2022/03/02 05:02:22;;;;;;;28.67;14.40;;;;;;;3.04;61.80;102276.97;5037670;28;20081;-72
2022/03/02 05:04:49;;;;;;;28.00;13.48;;;;;;;3.07;61.21;102269.78;5050469;28;20051;-72
2022/03/02 05:07:15;;;;;;;24.45;12.30;;;;;;;3.07;62.32;102277.75;5050948;28;20204;-72
2022/03/02 05:09:40;;;;;;;28.45;13.65;;;;;;;3.06;63.19;102276.03;5053946;28;20092;-72
2022/03/02 05:12:06;;;;;;;28.77;12.80;;;;;;;3.02;63.95;102279.66;5026150;28;20045;-72
2022/03/02 05:14:31;;;;;;;28.05;13.48;;;;;;;3.02;63.61;102273.47;5034196;28;20048;-72
2022/03/02 05:16:56;;;;;;;27.83;14.00;;;;;;;2.98;63.99;102277.94;5036986;28;20438;-72
2022/03/02 05:19:22;;;;;;;26.77;13.32;;;;;;;2.96;62.98;102279.78;5041297;28;20103;-72
2022/03/02 05:21:47;;;;;;;27.73;13.75;;;;;;;2.93;62.42;102269.22;5052860;28;20037;-72
2022/03/02 05:24:14;;;;;;;28.40;14.20;;;;;;;2.94;61.79;102271.84;5033278;28;20021;-72
2022/03/02 05:26:39;;;;;;;28.67;14.25;;;;;;;2.93;63.91;102277.16;5044615;28;20119;-72
2022/03/02 05:29:05;;;;;;;29.20;13.98;;;;;;;2.89;64.13;102279.00;5051650;28;20472;-72
2022/03/02 05:31:30;;;;;;;26.73;13.30;;;;;;;2.88;63.44;102271.06;5044142;28;20025;-73
2022/03/02 05:33:55;;;;;;;26.52;13.27;;;;;;;2.88;62.84;102263.09;5036142;28;20051;-73
2022/03/02 05:36:20;;;;;;;27.00;12.73;;;;;;;2.84;63.54;102264.03;5048104;28;20470;-73
2022/03/02 05:38:46;;;;;;;28.30;12.25;;;;;;;2.85;61.33;102266.66;5053363;28;20025;-73
2022/03/02 05:41:11;;;;;;;29.23;13.80;;;;;;;2.87;61.41;102266.63;5047166;28;20033;-72
2022/03/02 05:43:37;;;;;;;27.02;12.80;;;;;;;2.91;60.63;102265.69;5052401;28;20029;-72
2022/03/02 05:46:02;;;;;;;24.65;12.25;;;;;;;2.95;60.82;102265.59;5032036;28;20548;-72
2022/03/02 05:48:28;;;;;;;25.25;11.75;;;;;;;2.95;60.62;102267.38;5042770;28;20025;-73
2022/03/02 05:50:53;;;;;;;26.40;11.68;;;;;;;2.95;60.75;102265.59;5046408;28;20025;-72
2022/03/02 05:53:18;;;;;;;26.23;12.15;;;;;;;2.97;60.02;102258.50;5048954;28;20045;-73
2022/03/02 05:55:44;;;;;;;26.80;11.70;;;;;;;3.01;60.75;102266.41;5051475;28;20137;-72
2022/03/02 05:58:09;;;;;;;26.08;12.60;;;;;;;3.00;60.62;102256.66;5042162;28;20255;-72
2022/03/02 06:00:34;;;;;;;27.17;12.05;;;;;;;3.02;59.51;102266.38;5050413;28;20504;-73
2022/03/02 06:03:00;;;;;;;24.80;12.70;;;;;;;3.01;59.42;102264.59;5053223;28;20052;-73
2022/03/02 06:05:25;;;;;;;26.17;12.18;;;;;;;3.01;60.39;102261.94;5049656;28;20029;-73
2022/03/02 06:07:50;;;;;;;26.13;12.60;;;;;;;3.01;59.75;102258.44;5050654;28;20040;-73
2022/03/02 06:10:16;;;;;;;26.50;13.90;;;;;;;2.96;61.60;102269.16;5051218;28;20080;-72
2022/03/02 06:12:41;;;;;;;29.60;12.82;;;;;;;2.96;59.93;102269.16;5050020;28;20086;-72
2022/03/02 06:15:07;;;;;;;25.33;11.80;;;;;;;2.94;60.82;102265.63;5042539;28;20159;-73
2022/03/02 06:17:33;;;;;;;33.15;12.85;;;;;;;2.93;59.94;102263.91;5051131;28;20095;-72
2022/03/02 06:19:59;;;;;;;28.85;13.18;;;;;;;2.92;59.49;102265.66;5050039;28;20029;-72
2022/03/02 06:22:25;;;;;;;25.67;11.18;;;;;;;2.93;59.03;102266.56;5039154;28;20098;-72
2022/03/02 06:24:51;;;;;;;28.02;11.90;;;;;;;2.93;59.24;102269.22;5044067;28;20103;-72
2022/03/02 06:27:20;;;;;;;28.98;12.07;;;;;;;2.91;59.01;102273.66;5045226;28;20035;-72
2022/03/02 06:29:45;;;;;;;26.80;11.93;;;;;;;2.93;58.90;102274.50;5052713;28;20024;-72
2022/03/02 06:32:10;;;;;;;29.35;12.75;;;;;;;2.97;58.50;102277.09;5048588;28;20025;-73
2022/03/02 06:34:36;;;;;;;25.45;10.80;;;;;;;2.97;57.91;102266.47;5047748;28;20345;-73
2022/03/02 06:37:02;;;;;;;24.77;12.07;;;;;;;3.00;57.93;102270.81;5045135;28;20032;-73
2022/03/02 06:39:27;;;;;;;27.33;12.07;;;;;;;3.00;58.59;102276.13;5051387;28;20033;-73
2022/03/02 06:42:23;;;;;;;27.33;12.82;;;;;;;3.01;59.89;102277.03;5044326;28;20028;-72
2022/03/02 06:45:10;;;;;;;25.55;12.70;;;;;;;3.01;59.10;102277.88;5049722;28;20032;-72
2022/03/02 06:47:51;;;;;;;24.65;11.50;;;;;;;2.99;59.58;102279.72;5042109;28;20021;-73
2022/03/02 06:50:23;;;;;;;27.55;12.70;;;;;;;2.94;58.65;102281.56;5048027;28;20132;-72
2022/03/02 06:52:53;;;;;;;32.60;11.38;;;;;;;2.93;59.23;102293.09;5043432;28;20032;-72
2022/03/02 06:55:18;;;;;;;25.83;11.65;;;;;;;2.93;58.56;102285.13;5048281;28;20028;-72
2022/03/02 06:57:50;;;;;;;24.35;11.25;;;;;;;2.93;58.41;102293.97;5045847;28;20025;-72
2022/03/02 07:00:16;;;;;;;25.65;11.15;;;;;;;2.93;60.21;102295.75;5036658;28;20455;-73
2022/03/02 07:02:48;;;;;;;32.75;13.35;;;;;;;2.90;60.68;102295.78;5038128;28;20112;-73
2022/03/02 07:05:15;;;;;;;28.25;12.65;;;;;;;2.93;58.53;102295.75;5055876;28;20033;-73
2022/03/02 07:07:41;;;;;;;25.55;10.77;;;;;;;2.94;57.79;102282.44;5046184;28;20037;-73
2022/03/02 07:10:08;;;;;;;24.02;11.35;;;;;;;2.97;57.78;102284.16;5049374;28;20520;-72
2022/03/02 07:12:34;;;;;;;38.55;12.50;;;;;;;3.00;57.77;102286.75;5041793;28;20087;-72
2022/03/02 07:14:59;;;;;;;25.58;11.05;;;;;;;3.04;57.63;102292.91;5038950;28;20021;-72
2022/03/02 07:17:32;;;;;;;25.55;11.50;;;;;;;3.05;57.56;102284.91;5046534;28;20029;-72
2022/03/02 07:20:01;;;;;;;28.63;12.25;;;;;;;3.09;57.47;102293.66;5049718;28;20029;-72
2022/03/02 07:22:35;;;;;;;25.80;11.63;;;;;;;3.12;58.34;102288.31;5047714;28;20029;-73
2022/03/02 07:25:25;;;;;;;25.95;11.80;;;;;;;3.18;57.82;102293.53;5049201;28;20385;-72
2022/03/02 07:27:50;;;;;;;26.70;11.60;;;;;;;3.21;57.22;102300.56;5035704;28;20519;-72
2022/03/02 07:30:16;;;;;;;25.60;11.88;;;;;;;3.26;57.26;102304.00;5045756;28;20068;-72
2022/03/02 07:32:45;;;;;;;27.80;12.23;;;;;;;3.27;57.07;102296.00;5042590;28;20045;-72
2022/03/02 07:35:11;;;;;;;27.42;12.40;;;;;;;3.31;57.58;102300.34;5070235;28;20025;-72
2022/03/02 07:37:38;;;;;;;25.77;12.48;;;;;;;3.33;57.22;102300.31;5053973;28;20048;-72
2022/03/02 07:40:04;;;;;;;27.25;13.07;;;;;;;3.36;56.57;102300.25;5044380;28;20033;-72
2022/03/02 07:42:31;;;;;;;25.88;11.75;;;;;;;3.40;56.39;102296.63;5046400;28;20655;-72
2022/03/02 07:44:56;;;;;;;27.73;10.57;;;;;;;3.44;56.83;102293.00;5045009;28;20087;-73
2022/03/02 07:47:22;;;;;;;26.65;12.20;;;;;;;3.47;56.37;102292.94;5044794;28;20501;-72
2022/03/02 07:49:47;;;;;;;27.45;11.48;;;;;;;3.51;56.10;102285.75;5055752;28;20110;-72
2022/03/02 07:52:14;;;;;;;26.30;11.57;;;;;;;3.54;55.77;102288.34;5055488;28;20033;-72
2022/03/02 07:54:41;;;;;;;25.65;11.30;;;;;;;3.59;55.01;102272.34;5055598;28;20212;-72
2022/03/02 07:57:09;;;;;;;27.88;12.40;;;;;;;3.64;55.37;102281.06;5050217;28;20119;-72
2022/03/02 07:59:43;;;;;;;27.50;12.80;;;;;;;3.65;55.09;102282.84;5053326;28;20060;-72
2022/03/02 08:02:10;;;;;;;26.92;11.90;;;;;;;3.68;54.72;102277.44;5055019;28;20037;-73
2022/03/02 08:04:36;;;;;;;23.52;11.70;;;;;;;3.74;54.80;102279.97;5043517;28;20041;-73
2022/03/02 08:07:03;;;;;;;24.92;11.38;;;;;;;3.78;54.75;102278.13;5045755;28;20037;-73
2022/03/02 08:09:28;;;;;;;24.23;11.75;;;;;;;3.83;53.76;102271.78;5034057;28;20194;-73
2022/03/02 08:11:53;;;;;;;27.15;13.02;;;;;;;3.87;54.36;102271.75;5033539;28;20033;-72
2022/03/02 08:14:21;;;;;;;25.00;11.45;;;;;;;3.93;53.63;102275.13;5047449;28;20116;-72
2022/03/02 08:16:47;;;;;;;22.55;10.68;;;;;;;3.99;53.86;102274.09;5053651;28;20075;-72
2022/03/02 08:19:13;;;;;;;27.90;12.95;;;;;;;4.04;53.53;102272.19;5045891;28;20045;-72
2022/03/02 08:21:42;;;;;;;24.15;11.70;;;;;;;4.11;53.28;102273.81;5052281;28;20146;-72
2022/03/02 08:24:12;;;;;;;24.70;10.55;;;;;;;4.18;53.05;102272.75;5066300;28;20029;-73
2022/03/02 08:26:38;;;;;;;24.88;11.30;;;;;;;4.25;53.00;102268.19;5048829;28;20537;-73
2022/03/02 08:29:07;;;;;;;25.17;11.73;;;;;;;4.30;52.39;102268.94;5053514;28;20406;-73
2022/03/02 08:31:35;;;;;;;24.65;11.82;;;;;;;4.35;52.17;102274.16;5054458;28;20025;-73
2022/03/02 08:34:03;;;;;;;26.75;11.52;;;;;;;4.40;52.16;102272.25;5059611;28;20481;-73
2022/03/02 08:36:33;;;;;;;24.75;11.50;;;;;;;4.44;52.40;102273.94;5058381;28;20028;-73
2022/03/02 08:39:03;;;;;;;25.27;11.63;;;;;;;4.51;51.55;102264.88;5062833;28;20021;-73
2022/03/02 08:41:28;;;;;;;;;;;;;;;4.59;52.30;102266.47;5043018;28;20028;-72
2022/03/02 08:43:54;;;;;;;25.05;11.05;;;;;;;4.61;51.46;102264.63;5047559;28;19920;-72
2022/03/02 08:46:19;;;;;;;24.27;11.32;;;;;;;4.69;51.08;102260.00;5050643;28;20100;-72
2022/03/02 08:48:44;;;;;;;26.45;12.80;;;;;;;4.73;50.39;102261.69;5059712;28;20357;-73
2022/03/02 08:51:09;;;;;;;26.05;11.30;;;;;;;4.78;50.21;102256.22;5069080;28;20028;-73
2022/03/02 08:53:38;;;;;;;24.63;12.10;;;;;;;4.82;49.97;102263.22;5070313;28;20032;-73
2022/03/02 08:56:04;;;;;;;25.85;11.77;;;;;;;4.87;50.13;102258.63;5060380;28;20028;-73
2022/03/02 08:58:30;;;;;;;24.85;11.40;;;;;;;4.90;51.11;102259.44;5052132;28;20021;-73
2022/03/02 09:00:59;;;;;;;24.80;11.43;;;;;;;4.96;50.14;102255.72;5048816;28;20024;-73
2022/03/02 09:03:25;;;;;;;27.50;12.43;;;;;;;5.01;49.78;102255.59;5057361;28;20021;-73
2022/03/02 09:05:51;;;;;;;27.70;12.40;;;;;;;5.05;49.96;102258.16;5065103;28;20032;-73
2022/03/02 09:08:17;;;;;;;27.13;13.07;;;;;;;5.12;49.68;102256.16;5051525;28;20569;-73
2022/03/02 09:10:43;;;;;;;25.38;11.73;;;;;;;5.20;50.09;102256.84;5045748;28;20119;-72
2022/03/02 09:13:12;;;;;;;24.60;10.90;;;;;;;5.27;49.61;102251.31;5047156;28;20029;-72
2022/03/02 09:15:38;;;;;;;22.53;11.57;;;;;;;5.33;49.28;102257.38;5049667;28;20032;-72
2022/03/02 09:18:04;;;;;;;25.65;12.18;;;;;;;5.40;49.58;102252.72;5060143;28;20025;-72
2022/03/02 09:20:30;;;;;;;25.38;12.52;;;;;;;5.46;48.52;102251.66;5044637;28;20025;-72
2022/03/02 09:22:56;;;;;;;26.00;11.70;;;;;;;5.54;49.09;102245.19;5058330;28;20029;-72
2022/03/02 09:25:24;;;;;;;26.33;11.93;;;;;;;5.60;48.13;102245.00;5046844;28;20036;-72
2022/03/02 09:27:51;;;;;;;26.90;11.77;;;;;;;5.67;47.31;102248.38;5048293;28;20431;-73
2022/03/02 09:30:16;;;;;;;25.65;11.90;;;;;;;5.72;46.93;102245.56;5047087;28;20025;-72
2022/03/02 09:32:42;;;;;;;23.67;10.95;;;;;;;5.80;46.76;102247.97;5053800;28;20029;-72
2022/03/02 09:35:14;;;;;;;23.15;11.48;;;;;;;5.88;46.54;102240.63;5045698;28;20033;-72
2022/03/02 09:37:44;;;;;;;23.42;10.45;;;;;;;5.94;45.41;102237.75;5047483;28;20090;-72
2022/03/02 09:40:21;;;;;;;24.08;9.82;;;;;;;6.03;46.40;102240.19;5046711;28;20108;-72
2022/03/02 09:42:54;;;;;;;23.83;11.20;;;;;;;6.11;46.43;102235.47;5048298;28;20028;-72
2022/03/02 09:45:21;;;;;;;25.23;10.95;;;;;;;6.18;46.31;102238.81;5040419;28;20338;-73
2022/03/02 09:47:52;;;;;;;24.88;10.50;;;;;;;6.24;46.47;102230.59;5043946;28;20400;-73
2022/03/02 09:50:18;;;;;;;25.08;11.32;;;;;;;6.32;45.22;102227.66;5047855;28;20119;-72
2022/03/02 09:52:46;;;;;;;27.40;11.32;;;;;;;6.38;45.90;102221.25;5063301;28;20173;-74
2022/03/02 09:55:16;;;;;;;23.90;10.40;;;;;;;6.42;47.09;102225.56;5050380;28;20500;-74
2022/03/02 09:57:49;;;;;;;24.35;10.30;;;;;;;6.44;46.21;102215.69;5045693;28;20195;-73
2022/03/02 10:00:18;;;;;;;23.17;10.07;;;;;;;6.49;45.35;102208.41;5042539;28;20048;-73
2022/03/02 10:02:46;;;;;;;23.42;10.85;;;;;;;6.57;44.35;102210.81;5045966;28;20079;-72
2022/03/02 10:05:21;;;;;;;27.20;11.45;;;;;;;6.61;44.79;102213.31;5047530;28;20036;-72
2022/03/02 10:07:55;;;;;;;25.58;11.35;;;;;;;6.67;44.50;102209.56;5066923;28;20024;-74
2022/03/02 10:10:24;;;;;;;24.52;10.75;;;;;;;6.73;44.22;102217.34;5045634;28;20519;-73
2022/03/02 10:12:54;;;;;;;24.15;11.57;;;;;;;6.81;43.91;102214.44;5040929;28;20035;-73
2022/03/02 10:15:20;;;;;;;23.65;11.13;;;;;;;6.89;44.94;102211.47;5043093;28;20047;-73
2022/03/02 10:17:49;;;;;;;24.50;10.77;;;;;;;6.90;43.58;102216.78;5053409;28;20033;-73
2022/03/02 10:20:19;;;;;;;24.27;10.85;;;;;;;6.95;43.06;102212.13;5041340;28;20021;-73
2022/03/02 10:23:05;;;;;;;;;;;;;;;7.02;45.17;102222.63;5039324;28;20026;-73
2022/03/02 10:25:51;;;;;;;22.55;9.48;;;;;;;7.07;44.04;102221.53;5042799;28;19921;-72
2022/03/02 10:28:25;;;;;;;23.00;10.10;;;;;;;7.13;43.71;102207.91;5047687;28;20103;-73
2022/03/02 10:31:13;;;;;;;23.65;10.65;;;;;;;7.16;44.41;102205.13;5041384;28;20064;-73
2022/03/02 10:33:46;;;;;;;24.98;11.15;;;;;;;7.18;42.91;102208.59;5048688;28;20034;-73
2022/03/02 10:36:11;;;;;;;22.63;10.73;;;;;;;7.24;42.47;102212.84;5062729;28;20032;-73
2022/03/02 10:38:55;;;;;;;24.70;10.38;;;;;;;7.31;43.18;102206.34;5043622;28;20415;-72
2022/03/02 10:41:20;;;;;;;23.00;9.98;;;;;;;7.35;41.02;102209.81;5042450;28;20132;-73
2022/03/02 10:43:57;;;;;;;24.08;9.95;;;;;;;7.41;43.74;102200.63;5046211;28;20166;-73
2022/03/02 10:46:25;;;;;;;25.10;9.50;;;;;;;7.44;42.83;102208.56;5046803;28;20037;-73
2022/03/02 10:49:19;;;;;;;23.10;10.63;;;;;;;7.48;42.10;102203.03;5057701;28;20320;-73
2022/03/02 10:51:45;;;;;;;24.13;10.55;;;;;;;7.57;41.77;102209.84;5049702;28;20101;-73
2022/03/02 10:54:16;;;;;;;22.58;10.27;;;;;;;7.64;42.33;102205.09;5051347;28;20032;-73
2022/03/02 10:56:44;;;;;;;24.35;9.90;;;;;;;7.68;40.65;102214.75;5048221;28;20163;-73
2022/03/02 10:59:16;;;;;;;24.20;11.13;;;;;;;7.76;40.88;102209.09;5051056;28;20079;-73
2022/03/02 11:01:43;;;;;;;24.45;10.90;;;;;;;7.78;41.90;102197.41;5043657;28;20065;-73
2022/03/02 11:04:10;;;;;;;22.63;10.48;;;;;;;7.85;42.39;102193.56;5052405;28;20404;-73
2022/03/02 11:06:37;;;;;;;23.40;10.32;;;;;;;7.88;40.65;102197.91;5061337;28;20028;-73
2022/03/02 11:09:04;;;;;;;24.27;10.65;;;;;;;7.92;41.27;102188.84;5065755;28;20056;-73
2022/03/02 11:11:33;;;;;;;25.70;10.55;;;;;;;7.98;42.15;102187.69;5066671;28;20103;-73
2022/03/02 11:13:58;;;;;;;23.20;9.82;;;;;;;7.99;40.52;102184.09;5051049;28;20021;-73
2022/03/02 11:16:25;;;;;;;22.75;9.65;;;;;;;8.05;40.21;102179.38;5037971;28;20045;-73
2022/03/02 11:18:52;;;;;;;23.85;11.13;;;;;;;8.09;40.92;102184.59;5030699;28;20068;-74